sensor_id;sensor_type;location;lat;lon;timestamp;pressure;altitude;pressure_sealevel;temperature;humidity
42591;BME280;28218;53.342;-6.216;2022-09-13T00:00:57;100763.81;;;14.81;100.00
42591;BME280;28218;53.342;-6.216;2022-09-13T00:03:26;100769.50;;;14.78;100.00
42591;BME280;28218;53.342;-6.216;2022-09-13T00:05:54;100771.69;;;14.68;100.00
42591;BME280;28218;53.342;-6.216;2022-09-13T00:08:24;100767.44;;;14.74;100.00
42591;BME280;28218;53.342;-6.216;2022-09-13T00:10:52;100769.44;;;14.72;100.00
42591;BME280;28218;53.342;-6.216;2022-09-13T00:13:20;100775.97;;;14.69;100.00
42591;BME280;28218;53.342;-6.216;2022-09-13T00:15:49;100781.44;;;14.68;100.00
42591;BME280;28218;53.342;-6.216;2022-09-13T00:18:17;100777.16;;;14.67;100.00
42591;BME280;28218;53.342;-6.216;2022-09-13T00:20:46;100785.91;;;14.61;100.00
42591;BME280;28218;53.342;-6.216;2022-09-13T00:23:14;100780.97;;;14.57;100.00
42591;BME280;28218;53.342;-6.216;2022-09-13T00:25:43;100778.31;;;14.57;100.00
42591;BME280;28218;53.342;-6.216;2022-09-13T00:28:11;100780.56;;;14.54;100.00
42591;BME280;28218;53.342;-6.216;2022-09-13T00:30:39;100779.47;;;14.48;100.00
42591;BME280;28218;53.342;-6.216;2022-09-13T00:33:08;100775.38;;;14.46;100.00
42591;BME280;28218;53.342;-6.216;2022-09-13T00:35:36;100778.59;;;14.41;100.00
42591;BME280;28218;53.342;-6.216;2022-09-13T00:38:04;100774.31;;;14.40;100.00
42591;BME280;28218;53.342;-6.216;2022-09-13T00:40:36;100777.78;;;14.41;100.00
42591;BME280;28218;53.342;-6.216;2022-09-13T00:43:11;100770.00;;;14.39;100.00
42591;BME280;28218;53.342;-6.216;2022-09-13T00:45:46;100771.22;;;14.37;100.00
42591;BME280;28218;53.342;-6.216;2022-09-13T00:48:19;100777.69;;;14.34;100.00
42591;BME280;28218;53.342;-6.216;2022-09-13T00:50:51;100786.22;;;14.29;100.00
42591;BME280;28218;53.342;-6.216;2022-09-13T00:53:24;100782.13;;;14.27;100.00
42591;BME280;28218;53.342;-6.216;2022-09-13T00:55:57;100773.94;;;14.22;100.00
42591;BME280;28218;53.342;-6.216;2022-09-13T00:58:32;100775.94;;;14.20;100.00
42591;BME280;28218;53.342;-6.216;2022-09-13T01:01:02;100777.16;;;14.17;100.00
42591;BME280;28218;53.342;-6.216;2022-09-13T01:03:34;100774.69;;;14.16;100.00
42591;BME280;28218;53.342;-6.216;2022-09-13T01:06:06;100781.81;;;14.15;100.00
42591;BME280;28218;53.342;-6.216;2022-09-13T01:08:37;100775.09;;;14.13;100.00
42591;BME280;28218;53.342;-6.216;2022-09-13T01:11:10;100777.53;;;14.14;100.00
42591;BME280;28218;53.342;-6.216;2022-09-13T01:13:42;100778.75;;;14.12;100.00
42591;BME280;28218;53.342;-6.216;2022-09-13T01:16:11;100780.75;;;14.10;100.00
42591;BME280;28218;53.342;-6.216;2022-09-13T01:18:39;100787.69;;;14.11;100.00
42591;BME280;28218;53.342;-6.216;2022-09-13T01:24:16;100784.41;;;14.09;100.00
42591;BME280;28218;53.342;-6.216;2022-09-13T01:27:18;100787.06;;;14.09;100.00
42591;BME280;28218;53.342;-6.216;2022-09-13T01:30:11;100797.03;;;14.06;100.00
42591;BME280;28218;53.342;-6.216;2022-09-13T01:32:51;100795.59;;;14.04;100.00
42591;BME280;28218;53.342;-6.216;2022-09-13T01:35:33;100799.41;;;14.01;100.00
42591;BME280;28218;53.342;-6.216;2022-09-13T01:38:11;100799.63;;;14.00;100.00
42591;BME280;28218;53.342;-6.216;2022-09-13T01:40:53;100807.56;;;14.00;100.00
42591;BME280;28218;53.342;-6.216;2022-09-13T01:43:38;100805.09;;;13.98;100.00
42591;BME280;28218;53.342;-6.216;2022-09-13T01:46:13;100802.63;;;13.97;100.00
42591;BME280;28218;53.342;-6.216;2022-09-13T01:48:54;100807.50;;;13.93;100.00
42591;BME280;28218;53.342;-6.216;2022-09-13T01:51:28;100811.34;;;13.91;100.00
42591;BME280;28218;53.342;-6.216;2022-09-13T01:54:10;100805.59;;;13.87;100.00
42591;BME280;28218;53.342;-6.216;2022-09-13T01:56:49;100803.94;;;13.86;100.00
42591;BME280;28218;53.342;-6.216;2022-09-13T01:59:23;100799.66;;;13.85;100.00
42591;BME280;28218;53.342;-6.216;2022-09-13T02:02:00;100800.47;;;13.86;100.00
42591;BME280;28218;53.342;-6.216;2022-09-13T02:04:34;100799.66;;;13.85;100.00
42591;BME280;28218;53.342;-6.216;2022-09-13T02:07:08;100797.22;;;13.84;100.00
42591;BME280;28218;53.342;-6.216;2022-09-13T02:09:48;100795.75;;;13.81;100.00
42591;BME280;28218;53.342;-6.216;2022-09-13T02:12:20;100794.31;;;13.78;100.00
42591;BME280;28218;53.342;-6.216;2022-09-13T02:14:55;100803.81;;;13.73;100.00
42591;BME280;28218;53.342;-6.216;2022-09-13T02:17:33;100801.34;;;13.71;100.00
42591;BME280;28218;53.342;-6.216;2022-09-13T02:20:07;100801.72;;;13.68;100.00
42591;BME280;28218;53.342;-6.216;2022-09-13T02:22:43;100799.06;;;13.68;100.00
42591;BME280;28218;53.342;-6.216;2022-09-13T02:25:15;100810.88;;;13.66;100.00
42591;BME280;28218;53.342;-6.216;2022-09-13T02:27:47;100812.03;;;13.63;100.00
42591;BME280;28218;53.342;-6.216;2022-09-13T02:30:17;100818.53;;;13.61;100.00
42591;BME280;28218;53.342;-6.216;2022-09-13T02:32:52;100819.38;;;13.61;100.00
42591;BME280;28218;53.342;-6.216;2022-09-13T02:35:25;100818.72;;;13.59;100.00
42591;BME280;28218;53.342;-6.216;2022-09-13T02:37:59;100818.28;;;13.55;100.00
42591;BME280;28218;53.342;-6.216;2022-09-13T02:40:33;100818.91;;;13.58;100.00
42591;BME280;28218;53.342;-6.216;2022-09-13T02:43:09;100816.06;;;13.59;100.00
42591;BME280;28218;53.342;-6.216;2022-09-13T02:45:44;100822.81;;;13.62;100.00
42591;BME280;28218;53.342;-6.216;2022-09-13T02:48:20;100819.16;;;13.63;100.00
42591;BME280;28218;53.342;-6.216;2022-09-13T02:50:58;100822.47;;;13.65;100.00
42591;BME280;28218;53.342;-6.216;2022-09-13T02:53:35;100814.88;;;13.62;100.00
42591;BME280;28218;53.342;-6.216;2022-09-13T02:56:13;100823.84;;;13.61;100.00
42591;BME280;28218;53.342;-6.216;2022-09-13T02:58:53;100826.66;;;13.59;100.00
42591;BME280;28218;53.342;-6.216;2022-09-13T03:01:23;100825.00;;;13.58;100.00
42591;BME280;28218;53.342;-6.216;2022-09-13T03:03:53;100818.28;;;13.55;100.00
42591;BME280;28218;53.342;-6.216;2022-09-13T03:06:22;100817.28;;;13.57;100.00
42591;BME280;28218;53.342;-6.216;2022-09-13T03:08:51;100817.47;;;13.55;100.00
42591;BME280;28218;53.342;-6.216;2022-09-13T03:11:24;100810.34;;;13.55;100.00
42591;BME280;28218;53.342;-6.216;2022-09-13T03:14:14;100811.31;;;13.54;100.00
42591;BME280;28218;53.342;-6.216;2022-09-13T03:16:58;100815.78;;;13.54;100.00
42591;BME280;28218;53.342;-6.216;2022-09-13T03:19:39;100821.09;;;13.54;100.00
42591;BME280;28218;53.342;-6.216;2022-09-13T03:22:31;100823.94;;;13.52;100.00
42591;BME280;28218;53.342;-6.216;2022-09-13T03:25:08;100825.97;;;13.50;100.00
42591;BME280;28218;53.342;-6.216;2022-09-13T03:27:44;100822.41;;;13.43;100.00
42591;BME280;28218;53.342;-6.216;2022-09-13T03:30:17;100820.75;;;13.42;100.00
42591;BME280;28218;53.342;-6.216;2022-09-13T03:32:50;100818.28;;;13.41;100.00
42591;BME280;28218;53.342;-6.216;2022-09-13T03:35:27;100821.50;;;13.36;100.00
42591;BME280;28218;53.342;-6.216;2022-09-13T03:37:58;100821.84;;;13.33;100.00
42591;BME280;28218;53.342;-6.216;2022-09-13T03:40:35;100825.50;;;13.32;100.00
42591;BME280;28218;53.342;-6.216;2022-09-13T03:43:10;100819.56;;;13.30;100.00
42591;BME280;28218;53.342;-6.216;2022-09-13T03:45:45;100817.75;;;13.30;100.00
42591;BME280;28218;53.342;-6.216;2022-09-13T03:48:15;100821.59;;;13.28;100.00
42591;BME280;28218;53.342;-6.216;2022-09-13T03:50:46;100818.47;;;13.24;100.00
42591;BME280;28218;53.342;-6.216;2022-09-13T03:53:20;100817.66;;;13.24;100.00
42591;BME280;28218;53.342;-6.216;2022-09-13T03:55:50;100821.66;;;13.20;100.00
42591;BME280;28218;53.342;-6.216;2022-09-13T03:58:19;100823.28;;;13.21;100.00
42591;BME280;28218;53.342;-6.216;2022-09-13T04:00:47;100823.47;;;13.19;100.00
42591;BME280;28218;53.342;-6.216;2022-09-13T04:03:16;100825.03;;;13.14;100.00
42591;BME280;28218;53.342;-6.216;2022-09-13T04:05:46;100824.03;;;13.15;100.00
42591;BME280;28218;53.342;-6.216;2022-09-13T04:08:14;100819.75;;;13.14;100.00
42591;BME280;28218;53.342;-6.216;2022-09-13T04:10:42;100816.28;;;13.13;100.00
42591;BME280;28218;53.342;-6.216;2022-09-13T04:13:10;100813.44;;;13.15;100.00
42591;BME280;28218;53.342;-6.216;2022-09-13T04:15:38;100814.25;;;13.15;100.00
42591;BME280;28218;53.342;-6.216;2022-09-13T04:18:07;100814.72;;;13.19;100.00
42591;BME280;28218;53.342;-6.216;2022-09-13T04:20:36;100818.19;;;13.19;100.00
42591;BME280;28218;53.342;-6.216;2022-09-13T04:23:06;100816.69;;;13.17;100.00
42591;BME280;28218;53.342;-6.216;2022-09-13T04:25:37;100815.72;;;13.18;100.00
42591;BME280;28218;53.342;-6.216;2022-09-13T04:28:06;100813.09;;;13.18;100.00
42591;BME280;28218;53.342;-6.216;2022-09-13T04:30:35;100820.38;;;13.16;100.00
42591;BME280;28218;53.342;-6.216;2022-09-13T04:33:08;100814.25;;;13.15;100.00
42591;BME280;28218;53.342;-6.216;2022-09-13T04:35:36;100820.09;;;13.11;100.00
42591;BME280;28218;53.342;-6.216;2022-09-13T04:38:06;100826.19;;;13.11;100.00
42591;BME280;28218;53.342;-6.216;2022-09-13T04:40:35;100823.75;;;13.10;100.00
42591;BME280;28218;53.342;-6.216;2022-09-13T04:43:05;100813.34;;;13.08;100.00
42591;BME280;28218;53.342;-6.216;2022-09-13T04:45:33;100817.44;;;13.11;100.00
42591;BME280;28218;53.342;-6.216;2022-09-13T04:48:01;100816.81;;;13.09;100.00
42591;BME280;28218;53.342;-6.216;2022-09-13T04:50:29;100826.59;;;13.08;100.00
42591;BME280;28218;53.342;-6.216;2022-09-13T04:52:58;100815.81;;;13.10;100.00
42591;BME280;28218;53.342;-6.216;2022-09-13T04:55:27;100808.88;;;13.09;100.00
42591;BME280;28218;53.342;-6.216;2022-09-13T04:57:55;100820.44;;;13.08;100.00
42591;BME280;28218;53.342;-6.216;2022-09-13T05:00:23;100811.06;;;13.05;100.00
42591;BME280;28218;53.342;-6.216;2022-09-13T05:02:55;100825.09;;;13.05;100.00
42591;BME280;28218;53.342;-6.216;2022-09-13T05:05:24;100825.09;;;13.05;100.00
42591;BME280;28218;53.342;-6.216;2022-09-13T05:07:54;100828.75;;;13.04;100.00
42591;BME280;28218;53.342;-6.216;2022-09-13T05:10:22;100822.19;;;13.00;100.00
42591;BME280;28218;53.342;-6.216;2022-09-13T05:12:52;100819.34;;;13.02;100.00
42591;BME280;28218;53.342;-6.216;2022-09-13T05:15:21;100820.97;;;13.03;100.00
42591;BME280;28218;53.342;-6.216;2022-09-13T05:17:49;100818.34;;;13.03;100.00
42591;BME280;28218;53.342;-6.216;2022-09-13T05:20:17;100814.06;;;13.02;100.00
42591;BME280;28218;53.342;-6.216;2022-09-13T05:22:46;100804.50;;;13.01;100.00
42591;BME280;28218;53.342;-6.216;2022-09-13T05:25:14;100801.50;;;13.04;100.00
42591;BME280;28218;53.342;-6.216;2022-09-13T05:27:44;100811.97;;;12.97;100.00
42591;BME280;28218;53.342;-6.216;2022-09-13T05:30:14;100804.22;;;12.96;100.00
42591;BME280;28218;53.342;-6.216;2022-09-13T05:32:42;100810.66;;;12.93;100.00
42591;BME280;28218;53.342;-6.216;2022-09-13T05:35:10;100801.09;;;12.92;100.00
42591;BME280;28218;53.342;-6.216;2022-09-13T05:37:39;100803.75;;;12.92;100.00
42591;BME280;28218;53.342;-6.216;2022-09-13T05:40:08;100804.75;;;12.91;100.00
42591;BME280;28218;53.342;-6.216;2022-09-13T05:42:38;100802.31;;;12.90;100.00
42591;BME280;28218;53.342;-6.216;2022-09-13T05:45:07;100800.47;;;12.90;100.00
42591;BME280;28218;53.342;-6.216;2022-09-13T05:47:37;100806.78;;;12.89;100.00
42591;BME280;28218;53.342;-6.216;2022-09-13T05:50:06;100801.47;;;12.89;100.00
42591;BME280;28218;53.342;-6.216;2022-09-13T05:52:50;100804.28;;;12.88;100.00
42591;BME280;28218;53.342;-6.216;2022-09-13T05:55:19;100797.84;;;12.90;100.00
42591;BME280;28218;53.342;-6.216;2022-09-13T05:57:48;100803.28;;;12.89;100.00
42591;BME280;28218;53.342;-6.216;2022-09-13T06:00:16;100796.19;;;12.89;100.00
42591;BME280;28218;53.342;-6.216;2022-09-13T06:02:46;100794.19;;;12.91;100.00
42591;BME280;28218;53.342;-6.216;2022-09-13T06:05:15;100776.47;;;12.92;100.00
42591;BME280;28218;53.342;-6.216;2022-09-13T06:07:43;100784.88;;;12.95;100.00
42591;BME280;28218;53.342;-6.216;2022-09-13T06:10:11;100782.25;;;12.95;100.00
42591;BME280;28218;53.342;-6.216;2022-09-13T06:12:39;100791.00;;;12.96;100.00
42591;BME280;28218;53.342;-6.216;2022-09-13T06:15:08;100784.22;;;12.93;100.00
42591;BME280;28218;53.342;-6.216;2022-09-13T06:17:37;100789.97;;;12.97;100.00
42591;BME280;28218;53.342;-6.216;2022-09-13T06:20:08;100788.81;;;12.99;100.00
42591;BME280;28218;53.342;-6.216;2022-09-13T06:22:36;100779.88;;;13.00;100.00
42591;BME280;28218;53.342;-6.216;2022-09-13T06:25:05;100785.97;;;13.01;100.00
42591;BME280;28218;53.342;-6.216;2022-09-13T06:27:33;100790.09;;;13.03;100.00
42591;BME280;28218;53.342;-6.216;2022-09-13T06:30:02;100793.56;;;13.04;100.00
42591;BME280;28218;53.342;-6.216;2022-09-13T06:32:31;100793.38;;;13.05;100.00
42591;BME280;28218;53.342;-6.216;2022-09-13T06:34:59;100797.47;;;13.08;100.00
42591;BME280;28218;53.342;-6.216;2022-09-13T06:37:29;100794.91;;;13.15;100.00
42591;BME280;28218;53.342;-6.216;2022-09-13T06:39:57;100792.91;;;13.17;100.00
42591;BME280;28218;53.342;-6.216;2022-09-13T06:42:25;100793.53;;;13.19;100.00
42591;BME280;28218;53.342;-6.216;2022-09-13T06:44:53;100793.19;;;13.22;100.00
42591;BME280;28218;53.342;-6.216;2022-09-13T06:47:21;100800.97;;;13.23;100.00
42591;BME280;28218;53.342;-6.216;2022-09-13T06:49:50;100792.66;;;13.26;100.00
42591;BME280;28218;53.342;-6.216;2022-09-13T06:52:18;100794.19;;;13.36;100.00
42591;BME280;28218;53.342;-6.216;2022-09-13T06:54:47;100800.19;;;13.44;100.00
42591;BME280;28218;53.342;-6.216;2022-09-13T06:57:15;100802.56;;;13.54;100.00
42591;BME280;28218;53.342;-6.216;2022-09-13T06:59:44;100793.91;;;13.60;100.00
42591;BME280;28218;53.342;-6.216;2022-09-13T07:02:12;100792.13;;;13.67;100.00
42591;BME280;28218;53.342;-6.216;2022-09-13T07:04:40;100787.75;;;13.74;100.00
42591;BME280;28218;53.342;-6.216;2022-09-13T07:07:09;100789.44;;;13.82;100.00
42591;BME280;28218;53.342;-6.216;2022-09-13T07:09:37;100783.41;;;13.88;100.00
42591;BME280;28218;53.342;-6.216;2022-09-13T07:12:06;100783.25;;;13.96;100.00
42591;BME280;28218;53.342;-6.216;2022-09-13T07:14:35;100780.69;;;14.03;100.00
42591;BME280;28218;53.342;-6.216;2022-09-13T07:17:03;100782.38;;;14.11;100.00
42591;BME280;28218;53.342;-6.216;2022-09-13T07:19:32;100781.44;;;14.18;100.00
42591;BME280;28218;53.342;-6.216;2022-09-13T07:22:00;100777.22;;;14.24;100.00
42591;BME280;28218;53.342;-6.216;2022-09-13T07:24:28;100767.88;;;14.28;100.00
42591;BME280;28218;53.342;-6.216;2022-09-13T07:26:56;100762.38;;;14.29;100.00
42591;BME280;28218;53.342;-6.216;2022-09-13T07:29:26;100761.56;;;14.29;100.00
42591;BME280;28218;53.342;-6.216;2022-09-13T07:31:54;100761.81;;;14.34;100.00
42591;BME280;28218;53.342;-6.216;2022-09-13T07:34:25;100755.09;;;14.38;100.00
42591;BME280;28218;53.342;-6.216;2022-09-13T07:36:53;100753.09;;;14.40;100.00
42591;BME280;28218;53.342;-6.216;2022-09-13T07:39:21;100753.34;;;14.45;100.00
42591;BME280;28218;53.342;-6.216;2022-09-13T07:41:50;100737.88;;;14.49;100.00
42591;BME280;28218;53.342;-6.216;2022-09-13T07:44:19;100735.88;;;14.51;100.00
42591;BME280;28218;53.342;-6.216;2022-09-13T07:46:49;100733.25;;;14.57;100.00
42591;BME280;28218;53.342;-6.216;2022-09-13T07:49:18;100726.16;;;14.65;100.00
42591;BME280;28218;53.342;-6.216;2022-09-13T07:51:46;100722.94;;;14.69;100.00
42591;BME280;28218;53.342;-6.216;2022-09-13T07:54:18;100734.78;;;14.73;100.00
42591;BME280;28218;53.342;-6.216;2022-09-13T07:56:46;100739.09;;;14.81;100.00
42591;BME280;28218;53.342;-6.216;2022-09-13T07:59:16;100736.06;;;14.84;100.00
42591;BME280;28218;53.342;-6.216;2022-09-13T08:01:45;100750.75;;;14.87;100.00
42591;BME280;28218;53.342;-6.216;2022-09-13T08:04:16;100752.22;;;14.89;100.00
42591;BME280;28218;53.342;-6.216;2022-09-13T08:06:45;100757.97;;;14.93;100.00
42591;BME280;28218;53.342;-6.216;2022-09-13T08:09:13;100765.34;;;14.97;100.00
42591;BME280;28218;53.342;-6.216;2022-09-13T08:11:44;100758.00;;;14.99;100.00
42591;BME280;28218;53.342;-6.216;2022-09-13T08:14:14;100760.63;;;14.99;100.00
42591;BME280;28218;53.342;-6.216;2022-09-13T08:16:42;100766.75;;;15.00;100.00
42591;BME280;28218;53.342;-6.216;2022-09-13T08:19:12;100768.84;;;15.04;100.00
42591;BME280;28218;53.342;-6.216;2022-09-13T08:21:43;100767.63;;;15.07;100.00
42591;BME280;28218;53.342;-6.216;2022-09-13T08:24:14;100774.38;;;15.09;100.00
42591;BME280;28218;53.342;-6.216;2022-09-13T08:26:43;100763.16;;;15.14;100.00
42591;BME280;28218;53.342;-6.216;2022-09-13T08:29:11;100766.25;;;15.18;100.00
42591;BME280;28218;53.342;-6.216;2022-09-13T08:31:40;100759.53;;;15.22;100.00
42591;BME280;28218;53.342;-6.216;2022-09-13T08:34:10;100752.41;;;15.29;100.00
42591;BME280;28218;53.342;-6.216;2022-09-13T08:36:40;100747.75;;;15.38;100.00
42591;BME280;28218;53.342;-6.216;2022-09-13T08:39:11;100755.53;;;15.46;100.00
42591;BME280;28218;53.342;-6.216;2022-09-13T08:41:55;100758.41;;;15.51;100.00
42591;BME280;28218;53.342;-6.216;2022-09-13T08:44:29;100756.19;;;15.54;100.00
42591;BME280;28218;53.342;-6.216;2022-09-13T08:47:08;100755.38;;;15.54;100.00
42591;BME280;28218;53.342;-6.216;2022-09-13T08:49:43;100757.81;;;15.55;100.00
42591;BME280;28218;53.342;-6.216;2022-09-13T08:52:23;100757.59;;;15.57;100.00
42591;BME280;28218;53.342;-6.216;2022-09-13T08:54:57;100768.06;;;15.58;100.00
42591;BME280;28218;53.342;-6.216;2022-09-13T08:57:31;100776.06;;;15.65;100.00
42591;BME280;28218;53.342;-6.216;2022-09-13T09:00:20;100774.03;;;15.67;100.00
42591;BME280;28218;53.342;-6.216;2022-09-13T09:03:00;100772.59;;;15.71;100.00
42591;BME280;28218;53.342;-6.216;2022-09-13T09:05:38;100785.50;;;15.74;100.00
42591;BME280;28218;53.342;-6.216;2022-09-13T09:08:19;100788.78;;;15.76;100.00
42591;BME280;28218;53.342;-6.216;2022-09-13T09:10:56;100794.91;;;15.77;100.00
42591;BME280;28218;53.342;-6.216;2022-09-13T09:13:28;100803.88;;;15.76;100.00
42591;BME280;28218;53.342;-6.216;2022-09-13T09:16:01;100809.81;;;15.78;100.00
42591;BME280;28218;53.342;-6.216;2022-09-13T09:18:34;100819.44;;;15.79;100.00
42591;BME280;28218;53.342;-6.216;2022-09-13T09:21:03;100821.47;;;15.83;100.00
42591;BME280;28218;53.342;-6.216;2022-09-13T09:23:39;100833.56;;;15.86;100.00
42591;BME280;28218;53.342;-6.216;2022-09-13T09:26:16;100834.56;;;15.85;100.00
42591;BME280;28218;53.342;-6.216;2022-09-13T09:28:46;100847.47;;;15.88;100.00
42591;BME280;28218;53.342;-6.216;2022-09-13T09:31:25;100859.09;;;15.87;100.00
42591;BME280;28218;53.342;-6.216;2022-09-13T09:34:06;100855.03;;;15.91;100.00
42591;BME280;28218;53.342;-6.216;2022-09-13T09:36:38;100861.59;;;15.95;100.00
42591;BME280;28218;53.342;-6.216;2022-09-13T09:39:11;100856.88;;;15.97;100.00
42591;BME280;28218;53.342;-6.216;2022-09-13T09:41:43;100871.19;;;15.96;100.00
42591;BME280;28218;53.342;-6.216;2022-09-13T09:44:16;100877.13;;;15.98;100.00
42591;BME280;28218;53.342;-6.216;2022-09-13T09:46:48;100884.28;;;15.98;100.00
42591;BME280;28218;53.342;-6.216;2022-09-13T09:49:20;100890.41;;;15.98;100.00
42591;BME280;28218;53.342;-6.216;2022-09-13T09:52:09;100885.72;;;16.00;100.00
42591;BME280;28218;53.342;-6.216;2022-09-13T09:54:40;100897.78;;;16.03;100.00
42591;BME280;28218;53.342;-6.216;2022-09-13T09:57:10;100894.53;;;16.01;100.00
42591;BME280;28218;53.342;-6.216;2022-09-13T09:59:40;100903.09;;;15.96;100.00
42591;BME280;28218;53.342;-6.216;2022-09-13T10:02:14;100907.16;;;15.99;100.00
42591;BME280;28218;53.342;-6.216;2022-09-13T10:04:54;100924.53;;;15.95;100.00
42591;BME280;28218;53.342;-6.216;2022-09-13T10:07:26;100931.50;;;15.96;100.00
42591;BME280;28218;53.342;-6.216;2022-09-13T10:09:59;100932.31;;;15.96;100.00
42591;BME280;28218;53.342;-6.216;2022-09-13T10:12:33;100945.63;;;15.96;100.00
42591;BME280;28218;53.342;-6.216;2022-09-13T10:15:05;100959.50;;;15.98;100.00
42591;BME280;28218;53.342;-6.216;2022-09-13T10:17:34;100956.84;;;15.98;100.00
42591;BME280;28218;53.342;-6.216;2022-09-13T10:20:19;100963.81;;;15.99;100.00
42591;BME280;28218;53.342;-6.216;2022-09-13T10:23:10;100970.78;;;16.00;100.00
42591;BME280;28218;53.342;-6.216;2022-09-13T10:25:40;100966.72;;;16.04;100.00
42591;BME280;28218;53.342;-6.216;2022-09-13T10:28:17;100955.06;;;16.05;100.00
42591;BME280;28218;53.342;-6.216;2022-09-13T10:30:48;100967.72;;;16.03;100.00
42591;BME280;28218;53.342;-6.216;2022-09-13T10:33:25;100970.38;;;16.03;100.00
42591;BME280;28218;53.342;-6.216;2022-09-13T10:35:57;100962.59;;;16.02;100.00
42591;BME280;28218;53.342;-6.216;2022-09-13T10:38:30;100968.94;;;16.01;100.00
42591;BME280;28218;53.342;-6.216;2022-09-13T10:41:03;100968.28;;;15.99;100.00
42591;BME280;28218;53.342;-6.216;2022-09-13T10:43:34;100974.84;;;15.96;100.00
42591;BME280;28218;53.342;-6.216;2022-09-13T10:46:04;100985.03;;;15.93;100.00
42591;BME280;28218;53.342;-6.216;2022-09-13T10:48:44;100990.75;;;15.90;100.00
42591;BME280;28218;53.342;-6.216;2022-09-13T10:51:22;101000.97;;;15.93;100.00
42591;BME280;28218;53.342;-6.216;2022-09-13T10:54:23;101010.00;;;15.98;100.00
42591;BME280;28218;53.342;-6.216;2022-09-13T10:56:51;101004.91;;;16.03;100.00
42591;BME280;28218;53.342;-6.216;2022-09-13T10:59:22;101015.78;;;16.08;100.00
42591;BME280;28218;53.342;-6.216;2022-09-13T11:02:17;101016.56;;;16.02;100.00
42591;BME280;28218;53.342;-6.216;2022-09-13T11:05:07;101020.88;;;16.03;100.00
42591;BME280;28218;53.342;-6.216;2022-09-13T11:07:47;101014.56;;;16.04;100.00
42591;BME280;28218;53.342;-6.216;2022-09-13T11:10:22;101023.94;;;16.00;100.00
42591;BME280;28218;53.342;-6.216;2022-09-13T11:13:01;101034.16;;;16.03;100.00
42591;BME280;28218;53.342;-6.216;2022-09-13T11:15:46;101032.38;;;16.10;100.00
42591;BME280;28218;53.342;-6.216;2022-09-13T11:18:30;101029.81;;;16.37;100.00
42591;BME280;28218;53.342;-6.216;2022-09-13T11:21:14;101032.16;;;16.60;100.00
42591;BME280;28218;53.342;-6.216;2022-09-13T11:26:48;101040.78;;;16.69;100.00
42591;BME280;28218;53.342;-6.216;2022-09-13T11:29:32;101046.91;;;16.69;100.00
42591;BME280;28218;53.342;-6.216;2022-09-13T11:32:17;101064.34;;;16.72;100.00
42591;BME280;28218;53.342;-6.216;2022-09-13T11:34:58;101067.19;;;16.70;100.00
42591;BME280;28218;53.342;-6.216;2022-09-13T11:37:44;101062.94;;;16.76;100.00
42591;BME280;28218;53.342;-6.216;2022-09-13T11:40:29;101073.81;;;16.81;100.00
42591;BME280;28218;53.342;-6.216;2022-09-13T11:43:12;101068.91;;;16.84;100.00
42591;BME280;28218;53.342;-6.216;2022-09-13T11:45:50;101066.84;;;16.86;100.00
42591;BME280;28218;53.342;-6.216;2022-09-13T11:51:24;101073.38;;;16.84;100.00
42591;BME280;28218;53.342;-6.216;2022-09-13T11:54:13;101076.91;;;16.84;100.00
42591;BME280;28218;53.342;-6.216;2022-09-13T11:56:47;101069.97;;;17.03;100.00
42591;BME280;28218;53.342;-6.216;2022-09-13T11:59:31;101075.50;;;17.15;100.00
42591;BME280;28218;53.342;-6.216;2022-09-13T12:02:13;101074.91;;;17.26;100.00
42591;BME280;28218;53.342;-6.216;2022-09-13T12:04:50;101077.38;;;17.34;100.00
42591;BME280;28218;53.342;-6.216;2022-09-13T12:07:42;101073.91;;;17.47;100.00
42591;BME280;28218;53.342;-6.216;2022-09-13T12:10:15;101081.50;;;17.50;100.00
42591;BME280;28218;53.342;-6.216;2022-09-13T12:12:45;101078.84;;;17.50;100.00
42591;BME280;28218;53.342;-6.216;2022-09-13T12:15:21;101084.56;;;17.47;100.00
42591;BME280;28218;53.342;-6.216;2022-09-13T12:17:53;101093.59;;;17.46;100.00
42591;BME280;28218;53.342;-6.216;2022-09-13T12:20:30;101105.88;;;17.47;100.00
42591;BME280;28218;53.342;-6.216;2022-09-13T12:23:02;101102.38;;;17.53;100.00
42591;BME280;28218;53.342;-6.216;2022-09-13T12:25:33;101103.22;;;17.47;100.00
42591;BME280;28218;53.342;-6.216;2022-09-13T12:28:10;101094.38;;;17.53;100.00
42591;BME280;28218;53.342;-6.216;2022-09-13T12:30:44;101100.75;;;17.59;100.00
42591;BME280;28218;53.342;-6.216;2022-09-13T12:33:15;101101.16;;;17.62;100.00
42591;BME280;28218;53.342;-6.216;2022-09-13T12:35:52;101102.59;;;17.72;100.00
42591;BME280;28218;53.342;-6.216;2022-09-13T12:38:44;101098.09;;;17.92;100.00
42591;BME280;28218;53.342;-6.216;2022-09-13T12:41:43;101099.13;;;17.98;100.00
42591;BME280;28218;53.342;-6.216;2022-09-13T12:44:38;101099.13;;;17.98;100.00
42591;BME280;28218;53.342;-6.216;2022-09-13T12:47:18;101104.22;;;18.12;100.00
42591;BME280;28218;53.342;-6.216;2022-09-13T12:50:18;101105.63;;;18.15;100.00
42591;BME280;28218;53.342;-6.216;2022-09-13T12:53:26;101100.53;;;18.07;100.00
42591;BME280;28218;53.342;-6.216;2022-09-13T12:56:04;101111.56;;;18.24;100.00
42591;BME280;28218;53.342;-6.216;2022-09-13T12:58:54;101112.28;;;18.57;100.00
42591;BME280;28218;53.342;-6.216;2022-09-13T13:01:28;101117.78;;;18.82;100.00
42591;BME280;28218;53.342;-6.216;2022-09-13T13:04:02;101125.75;;;18.89;100.00
42591;BME280;28218;53.342;-6.216;2022-09-13T13:06:33;101136.91;;;18.73;100.00
42591;BME280;28218;53.342;-6.216;2022-09-13T13:09:18;101133.44;;;18.59;100.00
42591;BME280;28218;53.342;-6.216;2022-09-13T13:11:55;101136.16;;;18.46;100.00